sensor_id;sensor_type;location;lat;lon;timestamp;pressure;altitude;pressure_sealevel;temperature;humidity
20105;BME280;10212;42.714;23.310;2023-03-04T00:07:19;95201.19;;;4.12;100.00
20105;BME280;10212;42.714;23.310;2023-03-04T00:17:19;95197.59;;;3.96;100.00
20105;BME280;10212;42.714;23.310;2023-03-04T00:27:20;95194.38;;;4.02;100.00
20105;BME280;10212;42.714;23.310;2023-03-04T00:37:20;95181.81;;;4.16;100.00
20105;BME280;10212;42.714;23.310;2023-03-04T00:47:21;95180.03;;;4.08;100.00
20105;BME280;10212;42.714;23.310;2023-03-04T00:57:21;95175.38;;;4.12;100.00
20105;BME280;10212;42.714;23.310;2023-03-04T01:07:22;95176.19;;;4.20;100.00
20105;BME280;10212;42.714;23.310;2023-03-04T01:17:22;95174.38;;;4.21;100.00
20105;BME280;10212;42.714;23.310;2023-03-04T01:27:23;95156.81;;;4.16;100.00
20105;BME280;10212;42.714;23.310;2023-03-04T01:37:23;95152.13;;;4.20;100.00
20105;BME280;10212;42.714;23.310;2023-03-04T01:47:27;95138.75;;;4.08;100.00
20105;BME280;10212;42.714;23.310;2023-03-04T01:57:34;95134.38;;;4.00;100.00
20105;BME280;10212;42.714;23.310;2023-03-04T02:07:34;95127.63;;;3.91;100.00
20105;BME280;10212;42.714;23.310;2023-03-04T02:17:35;95134.38;;;3.83;100.00
20105;BME280;10212;42.714;23.310;2023-03-04T02:27:36;95125.34;;;3.79;100.00
20105;BME280;10212;42.714;23.310;2023-03-04T02:37:36;95135.63;;;3.63;100.00
20105;BME280;10212;42.714;23.310;2023-03-04T02:47:36;95116.88;;;3.44;100.00
20105;BME280;10212;42.714;23.310;2023-03-04T02:57:37;95111.06;;;3.33;100.00
20105;BME280;10212;42.714;23.310;2023-03-04T03:07:37;95118.25;;;3.13;100.00
20105;BME280;10212;42.714;23.310;2023-03-04T03:17:38;95123.34;;;3.05;100.00
20105;BME280;10212;42.714;23.310;2023-03-04T03:27:38;95123.72;;;2.75;100.00
20105;BME280;10212;42.714;23.310;2023-03-04T03:37:39;95114.03;;;2.69;100.00
20105;BME280;10212;42.714;23.310;2023-03-04T03:47:39;95110.78;;;2.67;100.00
20105;BME280;10212;42.714;23.310;2023-03-04T03:57:40;95106.59;;;2.39;100.00
20105;BME280;10212;42.714;23.310;2023-03-04T04:07:41;95094.97;;;2.26;100.00
20105;BME280;10212;42.714;23.310;2023-03-04T04:17:41;95098.38;;;2.09;100.00
20105;BME280;10212;42.714;23.310;2023-03-04T04:27:42;95095.88;;;1.99;100.00
20105;BME280;10212;42.714;23.310;2023-03-04T04:37:42;95094.84;;;1.91;100.00
20105;BME280;10212;42.714;23.310;2023-03-04T04:47:43;95094.78;;;1.83;100.00
20105;BME280;10212;42.714;23.310;2023-03-04T04:57:43;95096.25;;;1.86;100.00
20105;BME280;10212;42.714;23.310;2023-03-04T05:07:44;95109.69;;;1.79;100.00
20105;BME280;10212;42.714;23.310;2023-03-04T05:17:44;95122.47;;;1.89;100.00
20105;BME280;10212;42.714;23.310;2023-03-04T05:27:45;95123.50;;;2.41;100.00
20105;BME280;10212;42.714;23.310;2023-03-04T05:37:45;95131.47;;;2.83;100.00
20105;BME280;10212;42.714;23.310;2023-03-04T05:47:45;95123.81;;;3.43;100.00
20105;BME280;10212;42.714;23.310;2023-03-04T05:57:46;95140.69;;;4.06;100.00
20105;BME280;10212;42.714;23.310;2023-03-04T06:07:46;95142.09;;;4.58;100.00
20105;BME280;10212;42.714;23.310;2023-03-04T06:17:47;95142.41;;;4.64;100.00
20105;BME280;10212;42.714;23.310;2023-03-04T06:27:47;95149.50;;;4.78;98.82
20105;BME280;10212;42.714;23.310;2023-03-04T06:37:48;95165.59;;;5.05;96.67
20105;BME280;10212;42.714;23.310;2023-03-04T06:47:48;95159.72;;;5.28;92.57
20105;BME280;10212;42.714;23.310;2023-03-04T06:57:49;95162.28;;;5.28;92.66
20105;BME280;10212;42.714;23.310;2023-03-04T07:07:49;95170.84;;;5.29;91.89
20105;BME280;10212;42.714;23.310;2023-03-04T07:17:50;95177.28;;;5.33;92.01
20105;BME280;10212;42.714;23.310;2023-03-04T07:27:51;95177.25;;;5.73;89.06
20105;BME280;10212;42.714;23.310;2023-03-04T07:37:52;95171.78;;;5.76;87.84
20105;BME280;10212;42.714;23.310;2023-03-04T07:47:52;95166.47;;;5.93;87.45
20105;BME280;10212;42.714;23.310;2023-03-04T07:57:53;95166.78;;;6.07;86.92
20105;BME280;10212;42.714;23.310;2023-03-04T08:07:53;95163.06;;;6.24;85.51
20105;BME280;10212;42.714;23.310;2023-03-04T08:17:57;95168.13;;;5.94;84.66
20105;BME280;10212;42.714;23.310;2023-03-04T08:27:58;95163.22;;;5.99;84.27
20105;BME280;10212;42.714;23.310;2023-03-04T08:37:58;95153.59;;;6.17;83.11
20105;BME280;10212;42.714;23.310;2023-03-04T08:47:58;95158.75;;;6.40;82.93
20105;BME280;10212;42.714;23.310;2023-03-04T08:57:59;95155.97;;;7.10;78.40
20105;BME280;10212;42.714;23.310;2023-03-04T09:07:59;95145.59;;;7.26;77.70
20105;BME280;10212;42.714;23.310;2023-03-04T09:18:04;95132.69;;;7.47;77.15
20105;BME280;10212;42.714;23.310;2023-03-04T09:28:05;95130.16;;;7.54;75.77
20105;BME280;10212;42.714;23.310;2023-03-04T09:38:06;95122.56;;;8.40;72.79
20105;BME280;10212;42.714;23.310;2023-03-04T09:48:09;95109.16;;;8.94;70.35
20105;BME280;10212;42.714;23.310;2023-03-04T10:18:51;95086.09;;;8.27;72.43
20105;BME280;10212;42.714;23.310;2023-03-04T10:28:52;95078.44;;;8.76;70.90
20105;BME280;10212;42.714;23.310;2023-03-04T10:39:17;95054.97;;;8.62;71.37
20105;BME280;10212;42.714;23.310;2023-03-04T10:49:18;95043.28;;;8.51;70.97
20105;BME280;10212;42.714;23.310;2023-03-04T10:59:47;95026.78;;;9.01;69.64
20105;BME280;10212;42.714;23.310;2023-03-04T11:09:52;95012.88;;;8.74;71.19
20105;BME280;10212;42.714;23.310;2023-03-04T11:30:28;94974.47;;;8.76;71.67
20105;BME280;10212;42.714;23.310;2023-03-04T11:40:45;94967.97;;;8.58;71.33
20105;BME280;10212;42.714;23.310;2023-03-04T11:50:57;94954.91;;;8.93;70.05
20105;BME280;10212;42.714;23.310;2023-03-04T12:01:09;94946.97;;;9.15;70.47
20105;BME280;10212;42.714;23.310;2023-03-04T12:31:49;94913.31;;;8.93;69.69
20105;BME280;10212;42.714;23.310;2023-03-04T12:52:04;94901.53;;;9.11;71.42
20105;BME280;10212;42.714;23.310;2023-03-04T13:02:29;94886.94;;;9.31;70.20
20105;BME280;10212;42.714;23.310;2023-03-04T13:12:53;94869.31;;;8.99;70.96
20105;BME280;10212;42.714;23.310;2023-03-04T13:43:26;94843.28;;;8.92;72.24
20105;BME280;10212;42.714;23.310;2023-03-04T14:03:34;94827.31;;;9.29;70.87
20105;BME280;10212;42.714;23.310;2023-03-04T14:13:36;94821.09;;;9.16;72.48
20105;BME280;10212;42.714;23.310;2023-03-04T14:23:36;94815.31;;;9.14;72.99
20105;BME280;10212;42.714;23.310;2023-03-04T14:33:37;94808.31;;;9.08;72.82
20105;BME280;10212;42.714;23.310;2023-03-04T14:43:48;94799.09;;;9.19;72.30
20105;BME280;10212;42.714;23.310;2023-03-04T14:53:55;94799.25;;;9.45;70.86
20105;BME280;10212;42.714;23.310;2023-03-04T15:04:07;94787.09;;;9.25;70.67
20105;BME280;10212;42.714;23.310;2023-03-04T15:24:43;94764.47;;;8.85;71.79
20105;BME280;10212;42.714;23.310;2023-03-04T15:34:45;94756.28;;;8.67;73.26
20105;BME280;10212;42.714;23.310;2023-03-04T15:44:46;94749.41;;;8.39;74.24
20105;BME280;10212;42.714;23.310;2023-03-04T15:54:47;94745.56;;;8.08;75.51
20105;BME280;10212;42.714;23.310;2023-03-04T16:04:49;94747.44;;;7.79;77.06
20105;BME280;10212;42.714;23.310;2023-03-04T16:14:49;94748.72;;;7.54;78.38
20105;BME280;10212;42.714;23.310;2023-03-04T16:24:51;94751.13;;;7.20;80.12
20105;BME280;10212;42.714;23.310;2023-03-04T16:34:53;94757.06;;;7.07;80.98
20105;BME280;10212;42.714;23.310;2023-03-04T16:44:54;94760.09;;;6.89;82.29
20105;BME280;10212;42.714;23.310;2023-03-04T16:54:55;94769.34;;;6.98;82.71
20105;BME280;10212;42.714;23.310;2023-03-04T17:04:56;94760.13;;;6.96;83.96
20105;BME280;10212;42.714;23.310;2023-03-04T17:14:58;94760.94;;;6.96;84.09
20105;BME280;10212;42.714;23.310;2023-03-04T17:24:58;94759.44;;;7.09;83.88
20105;BME280;10212;42.714;23.310;2023-03-04T17:34:59;94761.28;;;7.15;83.41
20105;BME280;10212;42.714;23.310;2023-03-04T17:45:00;94770.25;;;7.13;83.36
20105;BME280;10212;42.714;23.310;2023-03-04T17:55:00;94774.63;;;7.12;82.93
20105;BME280;10212;42.714;23.310;2023-03-04T18:05:02;94766.75;;;6.98;83.82
20105;BME280;10212;42.714;23.310;2023-03-04T18:15:06;94773.72;;;6.98;84.76
20105;BME280;10212;42.714;23.310;2023-03-04T18:25:06;94769.34;;;6.98;84.17
20105;BME280;10212;42.714;23.310;2023-03-04T18:35:10;94766.59;;;7.07;83.94
20105;BME280;10212;42.714;23.310;2023-03-04T18:45:11;94774.00;;;7.10;83.65
20105;BME280;10212;42.714;23.310;2023-03-04T18:55:12;94766.84;;;7.12;84.56
20105;BME280;10212;42.714;23.310;2023-03-04T19:05:17;94772.97;;;7.04;84.39
20105;BME280;10212;42.714;23.310;2023-03-04T19:15:18;94781.25;;;6.93;84.62
20105;BME280;10212;42.714;23.310;2023-03-04T19:25:19;94784.53;;;6.80;85.64
20105;BME280;10212;42.714;23.310;2023-03-04T19:35:19;94787.44;;;6.70;86.76
20105;BME280;10212;42.714;23.310;2023-03-04T19:45:20;94792.44;;;6.49;88.92
20105;BME280;10212;42.714;23.310;2023-03-04T19:55:20;94793.75;;;6.38;88.19
20105;BME280;10212;42.714;23.310;2023-03-04T20:05:21;94786.19;;;6.22;88.50
20105;BME280;10212;42.714;23.310;2023-03-04T20:15:21;94786.63;;;6.25;87.90
20105;BME280;10212;42.714;23.310;2023-03-04T20:25:23;94788.34;;;6.18;86.55
20105;BME280;10212;42.714;23.310;2023-03-04T20:35:23;94792.50;;;6.19;85.24
20105;BME280;10212;42.714;23.310;2023-03-04T20:45:24;94791.72;;;6.19;84.59
20105;BME280;10212;42.714;23.310;2023-03-04T20:55:24;94781.72;;;6.15;84.30
20105;BME280;10212;42.714;23.310;2023-03-04T21:05:27;94788.00;;;6.06;83.74
20105;BME280;10212;42.714;23.310;2023-03-04T21:15:29;94778.63;;;5.90;83.95
20105;BME280;10212;42.714;23.310;2023-03-04T21:25:30;94769.34;;;5.81;84.35
20105;BME280;10212;42.714;23.310;2023-03-04T21:35:30;94767.31;;;5.76;85.27
20105;BME280;10212;42.714;23.310;2023-03-04T21:45:32;94759.38;;;5.77;84.50
20105;BME280;10212;42.714;23.310;2023-03-04T21:55:33;94759.31;;;5.71;85.26
20105;BME280;10212;42.714;23.310;2023-03-04T22:05:41;94757.41;;;5.79;84.24
20105;BME280;10212;42.714;23.310;2023-03-04T22:15:44;94750.28;;;5.82;83.89
20105;BME280;10212;42.714;23.310;2023-03-04T22:25:45;94743.13;;;5.84;83.67
20105;BME280;10212;42.714;23.310;2023-03-04T22:35:45;94749.41;;;5.74;83.29
20105;BME280;10212;42.714;23.310;2023-03-04T22:45:46;94736.19;;;5.69;83.80
20105;BME280;10212;42.714;23.310;2023-03-04T22:55:46;94740.84;;;5.59;84.25
20105;BME280;10212;42.714;23.310;2023-03-04T23:05:47;94740.66;;;5.45;85.35
20105;BME280;10212;42.714;23.310;2023-03-04T23:15:47;94726.94;;;5.29;86.01
20105;BME280;10212;42.714;23.310;2023-03-04T23:25:47;94718.56;;;5.27;85.95
20105;BME280;10212;42.714;23.310;2023-03-04T23:35:51;94715.91;;;5.36;86.21
20105;BME280;10212;42.714;23.310;2023-03-04T23:45:51;94717.84;;;5.34;85.51
20105;BME280;10212;42.714;23.310;2023-03-04T23:55:51;94713.75;;;5.24;85.39
